sensor_id;sensor_type;location;lat;lon;timestamp;temperature;humidity
45868;DHT22;31582;45.490;7.860;2022-09-27T00:01:08;12.60;91.60
45868;DHT22;31582;45.490;7.860;2022-09-27T00:03:35;12.40;92.90
45868;DHT22;31582;45.490;7.860;2022-09-27T00:06:11;12.20;93.80
45868;DHT22;31582;45.490;7.860;2022-09-27T00:08:38;12.10;95.60
45868;DHT22;31582;45.490;7.860;2022-09-27T00:11:06;12.10;95.50
45868;DHT22;31582;45.490;7.860;2022-09-27T00:13:34;12.10;95.20
45868;DHT22;31582;45.490;7.860;2022-09-27T00:16:02;12.10;95.00
45868;DHT22;31582;45.490;7.860;2022-09-27T00:18:31;12.20;94.60
45868;DHT22;31582;45.490;7.860;2022-09-27T00:21:08;12.20;94.10
45868;DHT22;31582;45.490;7.860;2022-09-27T00:23:35;12.20;93.60
45868;DHT22;31582;45.490;7.860;2022-09-27T00:26:03;12.20;93.60
45868;DHT22;31582;45.490;7.860;2022-09-27T00:28:30;12.10;93.50
45868;DHT22;31582;45.490;7.860;2022-09-27T00:30:56;12.10;93.60
45868;DHT22;31582;45.490;7.860;2022-09-27T00:33:24;12.00;94.10
45868;DHT22;31582;45.490;7.860;2022-09-27T00:35:51;12.00;93.90
45868;DHT22;31582;45.490;7.860;2022-09-27T00:38:17;12.00;93.90
45868;DHT22;31582;45.490;7.860;2022-09-27T00:40:44;11.90;94.20
45868;DHT22;31582;45.490;7.860;2022-09-27T00:45:41;11.90;93.50
45868;DHT22;31582;45.490;7.860;2022-09-27T00:48:09;11.90;93.40
45868;DHT22;31582;45.490;7.860;2022-09-27T00:50:40;11.90;93.10
45868;DHT22;31582;45.490;7.860;2022-09-27T00:53:12;11.80;93.50
45868;DHT22;31582;45.490;7.860;2022-09-27T00:55:51;11.70;94.10
45868;DHT22;31582;45.490;7.860;2022-09-27T00:58:20;11.70;93.60
45868;DHT22;31582;45.490;7.860;2022-09-27T01:00:50;11.70;94.20
45868;DHT22;31582;45.490;7.860;2022-09-27T01:03:29;11.80;93.60
45868;DHT22;31582;45.490;7.860;2022-09-27T01:05:57;11.80;93.40
45868;DHT22;31582;45.490;7.860;2022-09-27T01:08:25;11.80;93.40
45868;DHT22;31582;45.490;7.860;2022-09-27T01:10:54;11.80;93.80
45868;DHT22;31582;45.490;7.860;2022-09-27T01:13:29;11.80;94.20
45868;DHT22;31582;45.490;7.860;2022-09-27T01:16:07;11.80;93.80
45868;DHT22;31582;45.490;7.860;2022-09-27T01:24:23;11.70;93.80
45868;DHT22;31582;45.490;7.860;2022-09-27T01:45:58;11.50;93.50
45868;DHT22;31582;45.490;7.860;2022-09-27T01:48:23;11.50;93.30
45868;DHT22;31582;45.490;7.860;2022-09-27T01:53:47;11.40;93.00
45868;DHT22;31582;45.490;7.860;2022-09-27T01:56:17;11.40;92.90
45868;DHT22;31582;45.490;7.860;2022-09-27T01:59:19;11.40;92.60
45868;DHT22;31582;45.490;7.860;2022-09-27T02:01:38;11.40;92.40
45868;DHT22;31582;45.490;7.860;2022-09-27T02:04:06;11.30;92.60
45868;DHT22;31582;45.490;7.860;2022-09-27T02:06:34;11.20;92.60
45868;DHT22;31582;45.490;7.860;2022-09-27T02:09:02;11.20;94.80
45868;DHT22;31582;45.490;7.860;2022-09-27T02:11:31;11.20;94.10
45868;DHT22;31582;45.490;7.860;2022-09-27T02:14:10;11.10;94.60
45868;DHT22;31582;45.490;7.860;2022-09-27T02:16:42;11.10;94.60
45868;DHT22;31582;45.490;7.860;2022-09-27T02:25:04;11.00;96.50
45868;DHT22;31582;45.490;7.860;2022-09-27T02:27:33;11.00;95.90
45868;DHT22;31582;45.490;7.860;2022-09-27T02:30:05;11.00;96.00
45868;DHT22;31582;45.490;7.860;2022-09-27T02:32:33;11.00;96.90
45868;DHT22;31582;45.490;7.860;2022-09-27T02:35:01;11.00;97.10
45868;DHT22;31582;45.490;7.860;2022-09-27T02:37:29;11.00;98.00
45868;DHT22;31582;45.490;7.860;2022-09-27T02:39:56;11.00;97.50
45868;DHT22;31582;45.490;7.860;2022-09-27T02:42:23;11.10;97.80
45868;DHT22;31582;45.490;7.860;2022-09-27T02:44:50;11.10;98.20
45868;DHT22;31582;45.490;7.860;2022-09-27T02:57:45;11.10;98.70
45868;DHT22;31582;45.490;7.860;2022-09-27T03:00:17;11.00;98.80
45868;DHT22;31582;45.490;7.860;2022-09-27T03:05:28;10.90;99.90
45868;DHT22;31582;45.490;7.860;2022-09-27T03:07:55;11.00;99.50
45868;DHT22;31582;45.490;7.860;2022-09-27T03:10:23;11.00;99.00
45868;DHT22;31582;45.490;7.860;2022-09-27T03:12:50;10.90;99.00
45868;DHT22;31582;45.490;7.860;2022-09-27T03:15:17;10.90;99.10
45868;DHT22;31582;45.490;7.860;2022-09-27T03:17:44;10.90;98.60
45868;DHT22;31582;45.490;7.860;2022-09-27T03:20:11;10.90;98.30
45868;DHT22;31582;45.490;7.860;2022-09-27T03:22:38;10.90;98.00
45868;DHT22;31582;45.490;7.860;2022-09-27T03:25:06;10.80;97.70
45868;DHT22;31582;45.490;7.860;2022-09-27T03:27:33;10.80;97.30
45868;DHT22;31582;45.490;7.860;2022-09-27T03:29:59;10.80;97.30
45868;DHT22;31582;45.490;7.860;2022-09-27T03:32:26;10.80;97.70
45868;DHT22;31582;45.490;7.860;2022-09-27T03:34:53;10.70;98.60
45868;DHT22;31582;45.490;7.860;2022-09-27T03:37:21;10.60;98.30
45868;DHT22;31582;45.490;7.860;2022-09-27T03:39:47;10.70;97.90
45868;DHT22;31582;45.490;7.860;2022-09-27T03:42:14;10.60;98.30
45868;DHT22;31582;45.490;7.860;2022-09-27T03:44:41;10.50;98.80
45868;DHT22;31582;45.490;7.860;2022-09-27T03:47:08;10.50;98.70
45868;DHT22;31582;45.490;7.860;2022-09-27T03:49:35;10.40;98.60
45868;DHT22;31582;45.490;7.860;2022-09-27T03:52:02;10.50;98.30
45868;DHT22;31582;45.490;7.860;2022-09-27T03:54:29;10.50;98.10
45868;DHT22;31582;45.490;7.860;2022-09-27T03:56:55;10.50;98.20
45868;DHT22;31582;45.490;7.860;2022-09-27T03:59:22;10.30;99.00
45868;DHT22;31582;45.490;7.860;2022-09-27T04:01:49;10.30;99.30
45868;DHT22;31582;45.490;7.860;2022-09-27T04:04:15;10.40;99.00
45868;DHT22;31582;45.490;7.860;2022-09-27T04:06:42;10.40;98.50
45868;DHT22;31582;45.490;7.860;2022-09-27T04:09:09;10.30;99.30
45868;DHT22;31582;45.490;7.860;2022-09-27T04:11:36;10.30;98.50
45868;DHT22;31582;45.490;7.860;2022-09-27T04:14:02;10.30;98.10
45868;DHT22;31582;45.490;7.860;2022-09-27T04:16:31;10.20;97.70
45868;DHT22;31582;45.490;7.860;2022-09-27T04:18:59;10.20;97.80
45868;DHT22;31582;45.490;7.860;2022-09-27T04:21:27;10.20;97.50
45868;DHT22;31582;45.490;7.860;2022-09-27T04:23:53;10.10;97.40
45868;DHT22;31582;45.490;7.860;2022-09-27T04:26:20;10.10;97.20
45868;DHT22;31582;45.490;7.860;2022-09-27T04:28:47;10.10;97.00
45868;DHT22;31582;45.490;7.860;2022-09-27T04:31:20;10.10;96.80
45868;DHT22;31582;45.490;7.860;2022-09-27T04:33:47;10.00;96.60
45868;DHT22;31582;45.490;7.860;2022-09-27T04:36:17;9.80;97.50
45868;DHT22;31582;45.490;7.860;2022-09-27T04:38:57;9.70;98.70
45868;DHT22;31582;45.490;7.860;2022-09-27T04:41:24;9.60;99.30
45868;DHT22;31582;45.490;7.860;2022-09-27T04:43:54;9.70;99.10
45868;DHT22;31582;45.490;7.860;2022-09-27T04:46:25;9.70;98.70
45868;DHT22;31582;45.490;7.860;2022-09-27T04:48:52;9.70;98.40
45868;DHT22;31582;45.490;7.860;2022-09-27T04:51:19;9.70;98.30
45868;DHT22;31582;45.490;7.860;2022-09-27T04:53:46;9.80;97.90
45868;DHT22;31582;45.490;7.860;2022-09-27T04:56:13;9.70;97.80
45868;DHT22;31582;45.490;7.860;2022-09-27T04:58:41;9.70;97.90
45868;DHT22;31582;45.490;7.860;2022-09-27T05:01:07;9.60;97.70
45868;DHT22;31582;45.490;7.860;2022-09-27T05:03:35;9.60;97.60
45868;DHT22;31582;45.490;7.860;2022-09-27T05:06:01;9.60;97.10
45868;DHT22;31582;45.490;7.860;2022-09-27T05:08:28;9.60;96.80
45868;DHT22;31582;45.490;7.860;2022-09-27T05:10:55;9.60;96.60
45868;DHT22;31582;45.490;7.860;2022-09-27T05:13:22;9.50;96.70
45868;DHT22;31582;45.490;7.860;2022-09-27T05:15:48;9.50;96.50
45868;DHT22;31582;45.490;7.860;2022-09-27T05:18:15;9.30;96.40
45868;DHT22;31582;45.490;7.860;2022-09-27T05:20:43;9.20;97.20
45868;DHT22;31582;45.490;7.860;2022-09-27T05:23:10;9.20;97.00
45868;DHT22;31582;45.490;7.860;2022-09-27T05:25:37;9.20;96.70
45868;DHT22;31582;45.490;7.860;2022-09-27T05:28:04;9.20;96.50
45868;DHT22;31582;45.490;7.860;2022-09-27T05:30:31;9.20;96.40
45868;DHT22;31582;45.490;7.860;2022-09-27T05:32:58;9.30;96.30
45868;DHT22;31582;45.490;7.860;2022-09-27T05:35:25;9.30;96.40
45868;DHT22;31582;45.490;7.860;2022-09-27T05:37:52;9.30;96.40
45868;DHT22;31582;45.490;7.860;2022-09-27T05:40:20;9.30;97.00
45868;DHT22;31582;45.490;7.860;2022-09-27T05:43:07;9.20;96.80
45868;DHT22;31582;45.490;7.860;2022-09-27T05:45:33;9.20;96.70
45868;DHT22;31582;45.490;7.860;2022-09-27T05:48:00;9.10;96.70
45868;DHT22;31582;45.490;7.860;2022-09-27T05:50:27;9.00;97.20
45868;DHT22;31582;45.490;7.860;2022-09-27T05:52:54;9.00;97.40
45868;DHT22;31582;45.490;7.860;2022-09-27T05:55:21;9.10;97.20
45868;DHT22;31582;45.490;7.860;2022-09-27T05:57:57;9.10;97.40
45868;DHT22;31582;45.490;7.860;2022-09-27T06:00:25;9.10;97.40
45868;DHT22;31582;45.490;7.860;2022-09-27T06:02:56;9.20;97.60
45868;DHT22;31582;45.490;7.860;2022-09-27T06:05:24;9.20;97.60
45868;DHT22;31582;45.490;7.860;2022-09-27T06:07:51;9.30;97.60
45868;DHT22;31582;45.490;7.860;2022-09-27T06:10:18;9.30;98.00
45868;DHT22;31582;45.490;7.860;2022-09-27T06:12:45;9.30;99.80
45868;DHT22;31582;45.490;7.860;2022-09-27T06:15:12;9.40;99.70
45868;DHT22;31582;45.490;7.860;2022-09-27T06:17:40;9.50;99.50
45868;DHT22;31582;45.490;7.860;2022-09-27T06:20:07;9.50;99.80
45868;DHT22;31582;45.490;7.860;2022-09-27T06:22:34;9.50;99.90
45868;DHT22;31582;45.490;7.860;2022-09-27T06:25:02;9.50;99.90
45868;DHT22;31582;45.490;7.860;2022-09-27T06:27:30;9.60;99.90
45868;DHT22;31582;45.490;7.860;2022-09-27T06:29:57;9.70;99.90
45868;DHT22;31582;45.490;7.860;2022-09-27T06:32:24;9.80;99.90
45868;DHT22;31582;45.490;7.860;2022-09-27T06:34:52;9.90;99.90
45868;DHT22;31582;45.490;7.860;2022-09-27T06:37:24;10.00;99.90
45868;DHT22;31582;45.490;7.860;2022-09-27T06:39:57;10.10;99.90
45868;DHT22;31582;45.490;7.860;2022-09-27T06:42:23;10.20;99.90
45868;DHT22;31582;45.490;7.860;2022-09-27T06:44:53;10.20;99.70
45868;DHT22;31582;45.490;7.860;2022-09-27T06:47:19;10.30;99.90
45868;DHT22;31582;45.490;7.860;2022-09-27T06:49:46;10.40;99.90
45868;DHT22;31582;45.490;7.860;2022-09-27T06:52:18;10.50;99.90
45868;DHT22;31582;45.490;7.860;2022-09-27T06:54:45;10.60;99.90
45868;DHT22;31582;45.490;7.860;2022-09-27T06:57:12;10.70;99.90
45868;DHT22;31582;45.490;7.860;2022-09-27T06:59:58;10.80;99.90
45868;DHT22;31582;45.490;7.860;2022-09-27T07:02:44;10.90;99.90
45868;DHT22;31582;45.490;7.860;2022-09-27T07:05:11;11.20;99.80
45868;DHT22;31582;45.490;7.860;2022-09-27T07:07:38;11.40;99.60
45868;DHT22;31582;45.490;7.860;2022-09-27T07:10:05;11.50;99.30
45868;DHT22;31582;45.490;7.860;2022-09-27T07:12:35;11.70;99.40
45868;DHT22;31582;45.490;7.860;2022-09-27T07:15:03;11.90;99.50
45868;DHT22;31582;45.490;7.860;2022-09-27T07:17:30;12.10;99.20
45868;DHT22;31582;45.490;7.860;2022-09-27T07:19:57;12.30;99.10
45868;DHT22;31582;45.490;7.860;2022-09-27T07:22:24;12.50;98.50
45868;DHT22;31582;45.490;7.860;2022-09-27T07:24:51;12.70;98.30
45868;DHT22;31582;45.490;7.860;2022-09-27T07:27:17;13.00;97.20
45868;DHT22;31582;45.490;7.860;2022-09-27T07:29:44;13.20;96.70
45868;DHT22;31582;45.490;7.860;2022-09-27T07:32:11;13.50;95.50
45868;DHT22;31582;45.490;7.860;2022-09-27T07:34:38;13.70;94.20
45868;DHT22;31582;45.490;7.860;2022-09-27T07:37:04;14.00;93.20
45868;DHT22;31582;45.490;7.860;2022-09-27T07:39:31;14.30;92.60
45868;DHT22;31582;45.490;7.860;2022-09-27T07:41:58;14.50;91.10
45868;DHT22;31582;45.490;7.860;2022-09-27T07:44:25;14.70;91.20
45868;DHT22;31582;45.490;7.860;2022-09-27T07:46:52;15.00;90.00
45868;DHT22;31582;45.490;7.860;2022-09-27T07:49:19;15.30;89.90
45868;DHT22;31582;45.490;7.860;2022-09-27T07:51:45;15.50;86.70
45868;DHT22;31582;45.490;7.860;2022-09-27T07:54:12;15.70;85.90
45868;DHT22;31582;45.490;7.860;2022-09-27T07:56:39;15.90;83.20
45868;DHT22;31582;45.490;7.860;2022-09-27T07:59:06;16.00;80.90
45868;DHT22;31582;45.490;7.860;2022-09-27T08:01:32;16.10;80.00
45868;DHT22;31582;45.490;7.860;2022-09-27T08:04:00;16.30;79.10
45868;DHT22;31582;45.490;7.860;2022-09-27T08:06:28;16.40;77.80
45868;DHT22;31582;45.490;7.860;2022-09-27T08:08:55;16.50;76.70
45868;DHT22;31582;45.490;7.860;2022-09-27T08:11:24;16.70;77.00
45868;DHT22;31582;45.490;7.860;2022-09-27T08:13:50;16.90;74.30
45868;DHT22;31582;45.490;7.860;2022-09-27T08:16:18;17.10;72.40
45868;DHT22;31582;45.490;7.860;2022-09-27T08:18:45;17.20;71.10
45868;DHT22;31582;45.490;7.860;2022-09-27T08:21:11;17.30;70.90
45868;DHT22;31582;45.490;7.860;2022-09-27T08:23:38;17.40;70.60
45868;DHT22;31582;45.490;7.860;2022-09-27T08:26:05;17.50;69.30
45868;DHT22;31582;45.490;7.860;2022-09-27T08:28:31;17.60;67.80
45868;DHT22;31582;45.490;7.860;2022-09-27T08:30:59;17.50;68.20
45868;DHT22;31582;45.490;7.860;2022-09-27T08:33:25;17.60;70.10
45868;DHT22;31582;45.490;7.860;2022-09-27T08:35:58;17.60;69.00
45868;DHT22;31582;45.490;7.860;2022-09-27T08:38:25;17.80;69.70
45868;DHT22;31582;45.490;7.860;2022-09-27T08:40:55;17.90;67.50
45868;DHT22;31582;45.490;7.860;2022-09-27T08:43:33;18.10;67.80
45868;DHT22;31582;45.490;7.860;2022-09-27T08:46:04;18.30;67.60
45868;DHT22;31582;45.490;7.860;2022-09-27T08:48:33;18.40;66.50
45868;DHT22;31582;45.490;7.860;2022-09-27T08:51:01;18.30;64.60
45868;DHT22;31582;45.490;7.860;2022-09-27T08:53:32;18.40;65.50
45868;DHT22;31582;45.490;7.860;2022-09-27T08:56:01;18.50;65.20
45868;DHT22;31582;45.490;7.860;2022-09-27T08:58:33;18.70;64.10
45868;DHT22;31582;45.490;7.860;2022-09-27T09:01:02;18.80;66.20
45868;DHT22;31582;45.490;7.860;2022-09-27T09:03:30;19.00;64.00
45868;DHT22;31582;45.490;7.860;2022-09-27T09:11:23;19.30;62.90
45868;DHT22;31582;45.490;7.860;2022-09-27T09:14:33;19.40;62.40
45868;DHT22;31582;45.490;7.860;2022-09-27T09:32:45;19.70;63.50
45868;DHT22;31582;45.490;7.860;2022-09-27T09:35:16;19.80;61.00
45868;DHT22;31582;45.490;7.860;2022-09-27T09:37:46;19.80;62.00
45868;DHT22;31582;45.490;7.860;2022-09-27T09:42:47;20.10;60.80
45868;DHT22;31582;45.490;7.860;2022-09-27T09:45:19;20.10;60.10
45868;DHT22;31582;45.490;7.860;2022-09-27T09:48:02;20.20;59.30
45868;DHT22;31582;45.490;7.860;2022-09-27T09:50:32;20.20;59.50
45868;DHT22;31582;45.490;7.860;2022-09-27T09:53:38;20.40;60.30
45868;DHT22;31582;45.490;7.860;2022-09-27T09:55:57;20.60;59.60
45868;DHT22;31582;45.490;7.860;2022-09-27T09:58:45;20.60;59.00
45868;DHT22;31582;45.490;7.860;2022-09-27T10:01:19;20.50;58.10
45868;DHT22;31582;45.490;7.860;2022-09-27T10:03:46;20.30;58.80
45868;DHT22;31582;45.490;7.860;2022-09-27T10:06:13;20.40;60.60
45868;DHT22;31582;45.490;7.860;2022-09-27T10:08:41;20.40;58.20
45868;DHT22;31582;45.490;7.860;2022-09-27T10:11:12;20.40;58.40
45868;DHT22;31582;45.490;7.860;2022-09-27T10:13:44;20.50;58.50
45868;DHT22;31582;45.490;7.860;2022-09-27T10:16:11;20.50;56.70
45868;DHT22;31582;45.490;7.860;2022-09-27T10:18:39;20.60;56.90
45868;DHT22;31582;45.490;7.860;2022-09-27T10:26:30;21.10;57.50
45868;DHT22;31582;45.490;7.860;2022-09-27T10:28:57;21.40;54.90
45868;DHT22;31582;45.490;7.860;2022-09-27T10:31:39;21.60;54.60
45868;DHT22;31582;45.490;7.860;2022-09-27T10:34:26;22.00;55.00
45868;DHT22;31582;45.490;7.860;2022-09-27T10:39:38;21.80;52.40
45868;DHT22;31582;45.490;7.860;2022-09-27T10:44:51;21.90;53.20
45868;DHT22;31582;45.490;7.860;2022-09-27T10:47:21;21.90;53.70
45868;DHT22;31582;45.490;7.860;2022-09-27T10:49:49;21.90;52.60
45868;DHT22;31582;45.490;7.860;2022-09-27T10:52:23;22.00;50.60
45868;DHT22;31582;45.490;7.860;2022-09-27T10:54:54;21.60;51.60
45868;DHT22;31582;45.490;7.860;2022-09-27T10:57:21;21.60;53.30
45868;DHT22;31582;45.490;7.860;2022-09-27T10:59:50;21.80;51.70
45868;DHT22;31582;45.490;7.860;2022-09-27T11:02:22;21.50;50.90
45868;DHT22;31582;45.490;7.860;2022-09-27T11:07:48;21.90;51.70
45868;DHT22;31582;45.490;7.860;2022-09-27T11:10:24;22.20;50.60
45868;DHT22;31582;45.490;7.860;2022-09-27T11:13:16;22.60;50.30
45868;DHT22;31582;45.490;7.860;2022-09-27T11:32:21;23.30;45.20
45868;DHT22;31582;45.490;7.860;2022-09-27T11:34:46;23.00;43.40
45868;DHT22;31582;45.490;7.860;2022-09-27T11:37:41;22.90;43.60
45868;DHT22;31582;45.490;7.860;2022-09-27T11:42:40;23.10;43.00
45868;DHT22;31582;45.490;7.860;2022-09-27T11:58:27;23.50;43.80
45868;DHT22;31582;45.490;7.860;2022-09-27T12:06:04;23.50;44.70
45868;DHT22;31582;45.490;7.860;2022-09-27T12:11:22;24.00;41.80
45868;DHT22;31582;45.490;7.860;2022-09-27T12:16:26;24.40;39.20
45868;DHT22;31582;45.490;7.860;2022-09-27T12:18:54;24.30;38.20
45868;DHT22;31582;45.490;7.860;2022-09-27T12:21:21;24.00;38.30
45868;DHT22;31582;45.490;7.860;2022-09-27T12:23:49;24.20;41.40
45868;DHT22;31582;45.490;7.860;2022-09-27T12:26:22;24.30;39.50
45868;DHT22;31582;45.490;7.860;2022-09-27T12:28:54;24.10;39.40
45868;DHT22;31582;45.490;7.860;2022-09-27T12:37:03;23.90;41.70
45868;DHT22;31582;45.490;7.860;2022-09-27T12:39:52;23.90;42.70
45868;DHT22;31582;45.490;7.860;2022-09-27T12:42:19;23.60;42.20
45868;DHT22;31582;45.490;7.860;2022-09-27T12:44:46;23.80;40.50
45868;DHT22;31582;45.490;7.860;2022-09-27T12:52:28;23.80;44.00
45868;DHT22;31582;45.490;7.860;2022-09-27T12:55:06;23.80;42.70
45868;DHT22;31582;45.490;7.860;2022-09-27T12:57:43;23.80;43.60
45868;DHT22;31582;45.490;7.860;2022-09-27T13:00:18;24.20;44.40
45868;DHT22;31582;45.490;7.860;2022-09-27T13:03:10;24.10;43.60
45868;DHT22;31582;45.490;7.860;2022-09-27T13:08:34;23.90;42.90
45868;DHT22;31582;45.490;7.860;2022-09-27T13:11:12;24.50;43.10
45868;DHT22;31582;45.490;7.860;2022-09-27T13:13:41;25.00;41.90
45868;DHT22;31582;45.490;7.860;2022-09-27T13:16:08;25.20;41.30
45868;DHT22;31582;45.490;7.860;2022-09-27T13:21:07;25.30;41.90
45868;DHT22;31582;45.490;7.860;2022-09-27T13:26:02;25.70;40.60
45868;DHT22;31582;45.490;7.860;2022-09-27T13:33:44;26.60;36.80
45868;DHT22;31582;45.490;7.860;2022-09-27T13:41:21;25.50;37.00
45868;DHT22;31582;45.490;7.860;2022-09-27T13:46:16;25.70;39.60
45868;DHT22;31582;45.490;7.860;2022-09-27T13:48:49;25.80;39.60
45868;DHT22;31582;45.490;7.860;2022-09-27T13:51:34;25.70;40.30
45868;DHT22;31582;45.490;7.860;2022-09-27T13:54:03;25.20;41.50
45868;DHT22;31582;45.490;7.860;2022-09-27T13:59:04;24.90;41.60
45868;DHT22;31582;45.490;7.860;2022-09-27T14:01:38;24.70;41.40
45868;DHT22;31582;45.490;7.860;2022-09-27T14:04:16;24.20;42.20
45868;DHT22;31582;45.490;7.860;2022-09-27T14:06:44;23.90;42.60
45868;DHT22;31582;45.490;7.860;2022-09-27T14:09:16;23.70;42.10
45868;DHT22;31582;45.490;7.860;2022-09-27T14:11:43;23.60;42.50
45868;DHT22;31582;45.490;7.860;2022-09-27T14:14:14;23.60;43.00
45868;DHT22;31582;45.490;7.860;2022-09-27T14:16:43;23.80;42.90
45868;DHT22;31582;45.490;7.860;2022-09-27T14:19:22;24.00;39.30
45868;DHT22;31582;45.490;7.860;2022-09-27T14:21:51;24.20;41.40
45868;DHT22;31582;45.490;7.860;2022-09-27T14:24:22;24.10;41.90
45868;DHT22;31582;45.490;7.860;2022-09-27T14:26:50;24.20;41.50
45868;DHT22;31582;45.490;7.860;2022-09-27T14:29:29;23.80;40.50
45868;DHT22;31582;45.490;7.860;2022-09-27T14:32:09;23.70;41.50
45868;DHT22;31582;45.490;7.860;2022-09-27T14:34:35;23.80;40.90
45868;DHT22;31582;45.490;7.860;2022-09-27T14:37:02;23.90;40.50
45868;DHT22;31582;45.490;7.860;2022-09-27T14:39:51;23.80;40.60
45868;DHT22;31582;45.490;7.860;2022-09-27T14:42:19;24.10;41.00
45868;DHT22;31582;45.490;7.860;2022-09-27T14:44:47;24.20;39.70
45868;DHT22;31582;45.490;7.860;2022-09-27T14:49:45;24.10;38.70
45868;DHT22;31582;45.490;7.860;2022-09-27T14:52:15;23.90;39.30
45868;DHT22;31582;45.490;7.860;2022-09-27T14:54:42;23.90;40.10
45868;DHT22;31582;45.490;7.860;2022-09-27T14:57:10;24.10;40.10
45868;DHT22;31582;45.490;7.860;2022-09-27T14:59:39;24.00;39.30
45868;DHT22;31582;45.490;7.860;2022-09-27T15:02:14;23.80;40.00
45868;DHT22;31582;45.490;7.860;2022-09-27T15:04:43;23.70;39.50
45868;DHT22;31582;45.490;7.860;2022-09-27T15:07:12;23.80;38.50
45868;DHT22;31582;45.490;7.860;2022-09-27T15:09:41;23.90;37.60
45868;DHT22;31582;45.490;7.860;2022-09-27T15:12:08;23.80;37.70
45868;DHT22;31582;45.490;7.860;2022-09-27T15:14:36;23.60;35.90
45868;DHT22;31582;45.490;7.860;2022-09-27T15:17:15;23.40;35.70
45868;DHT22;31582;45.490;7.860;2022-09-27T15:19:54;23.50;35.60
45868;DHT22;31582;45.490;7.860;2022-09-27T15:22:22;23.50;34.10
45868;DHT22;31582;45.490;7.860;2022-09-27T15:24:49;23.70;35.00
45868;DHT22;31582;45.490;7.860;2022-09-27T15:30:01;24.10;31.10
45868;DHT22;31582;45.490;7.860;2022-09-27T15:32:29;24.40;31.60
45868;DHT22;31582;45.490;7.860;2022-09-27T15:34:56;24.90;30.60
45868;DHT22;31582;45.490;7.860;2022-09-27T15:37:35;25.20;30.60
45868;DHT22;31582;45.490;7.860;2022-09-27T15:42:58;24.60;32.60
45868;DHT22;31582;45.490;7.860;2022-09-27T15:45:26;24.50;33.90
45868;DHT22;31582;45.490;7.860;2022-09-27T15:47:53;24.50;34.60
45868;DHT22;31582;45.490;7.860;2022-09-27T15:52:53;24.60;33.40
45868;DHT22;31582;45.490;7.860;2022-09-27T15:55:28;24.40;34.10
45868;DHT22;31582;45.490;7.860;2022-09-27T16:00:51;24.60;32.90
45868;DHT22;31582;45.490;7.860;2022-09-27T16:03:18;24.50;33.00
45868;DHT22;31582;45.490;7.860;2022-09-27T16:05:46;24.60;31.70
45868;DHT22;31582;45.490;7.860;2022-09-27T16:08:12;24.80;32.90
45868;DHT22;31582;45.490;7.860;2022-09-27T16:10:40;24.80;33.50
45868;DHT22;31582;45.490;7.860;2022-09-27T16:13:08;24.60;33.60
45868;DHT22;31582;45.490;7.860;2022-09-27T16:15:35;24.00;34.10
45868;DHT22;31582;45.490;7.860;2022-09-27T16:18:02;23.70;35.30
45868;DHT22;31582;45.490;7.860;2022-09-27T16:20:29;23.40;36.40
45868;DHT22;31582;45.490;7.860;2022-09-27T16:22:57;23.10;38.40
45868;DHT22;31582;45.490;7.860;2022-09-27T16:25:24;23.20;39.40
45868;DHT22;31582;45.490;7.860;2022-09-27T16:27:51;23.40;39.70
45868;DHT22;31582;45.490;7.860;2022-09-27T16:30:18;23.70;38.60
45868;DHT22;31582;45.490;7.860;2022-09-27T16:32:46;23.80;38.90
45868;DHT22;31582;45.490;7.860;2022-09-27T16:35:22;23.80;40.00
45868;DHT22;31582;45.490;7.860;2022-09-27T16:37:49;23.80;40.80
45868;DHT22;31582;45.490;7.860;2022-09-27T16:40:16;23.50;41.00
45868;DHT22;31582;45.490;7.860;2022-09-27T16:42:46;23.40;42.20
45868;DHT22;31582;45.490;7.860;2022-09-27T16:45:13;23.20;43.00
45868;DHT22;31582;45.490;7.860;2022-09-27T16:47:45;23.10;43.70
45868;DHT22;31582;45.490;7.860;2022-09-27T16:50:12;22.80;42.50
45868;DHT22;31582;45.490;7.860;2022-09-27T16:52:57;22.60;42.30
45868;DHT22;31582;45.490;7.860;2022-09-27T16:55:25;22.30;42.60
45868;DHT22;31582;45.490;7.860;2022-09-27T16:57:56;22.10;43.80
45868;DHT22;31582;45.490;7.860;2022-09-27T17:00:23;21.90;44.10
45868;DHT22;31582;45.490;7.860;2022-09-27T17:02:50;21.70;43.40
45868;DHT22;31582;45.490;7.860;2022-09-27T17:05:18;21.50;43.10
45868;DHT22;31582;45.490;7.860;2022-09-27T17:07:48;21.30;43.30
45868;DHT22;31582;45.490;7.860;2022-09-27T17:10:15;21.20;43.70
45868;DHT22;31582;45.490;7.860;2022-09-27T17:12:42;21.10;44.40
45868;DHT22;31582;45.490;7.860;2022-09-27T17:15:09;20.80;44.90
45868;DHT22;31582;45.490;7.860;2022-09-27T17:17:36;20.60;43.90
45868;DHT22;31582;45.490;7.860;2022-09-27T17:20:03;20.40;44.70
45868;DHT22;31582;45.490;7.860;2022-09-27T17:22:30;20.30;45.00
45868;DHT22;31582;45.490;7.860;2022-09-27T17:24:59;20.20;45.50
45868;DHT22;31582;45.490;7.860;2022-09-27T17:27:27;20.00;43.60
45868;DHT22;31582;45.490;7.860;2022-09-27T17:29:54;19.80;41.40
45868;DHT22;31582;45.490;7.860;2022-09-27T17:32:21;19.70;36.50
45868;DHT22;31582;45.490;7.860;2022-09-27T17:34:49;19.60;32.40
45868;DHT22;31582;45.490;7.860;2022-09-27T17:37:16;19.60;31.30
45868;DHT22;31582;45.490;7.860;2022-09-27T17:39:43;19.60;31.60
45868;DHT22;31582;45.490;7.860;2022-09-27T17:42:10;19.50;30.80
45868;DHT22;31582;45.490;7.860;2022-09-27T17:44:38;19.40;32.50
45868;DHT22;31582;45.490;7.860;2022-09-27T17:47:04;19.30;34.10
45868;DHT22;31582;45.490;7.860;2022-09-27T17:49:50;19.20;34.10
45868;DHT22;31582;45.490;7.860;2022-09-27T17:52:35;19.10;34.90
45868;DHT22;31582;45.490;7.860;2022-09-27T17:55:03;19.00;34.80
45868;DHT22;31582;45.490;7.860;2022-09-27T17:57:29;18.90;34.20
45868;DHT22;31582;45.490;7.860;2022-09-27T17:59:57;18.80;32.70
45868;DHT22;31582;45.490;7.860;2022-09-27T18:02:24;18.70;32.30
45868;DHT22;31582;45.490;7.860;2022-09-27T18:04:51;18.80;30.50
45868;DHT22;31582;45.490;7.860;2022-09-27T18:07:18;18.80;30.80
45868;DHT22;31582;45.490;7.860;2022-09-27T18:09:45;18.70;30.20
45868;DHT22;31582;45.490;7.860;2022-09-27T18:12:12;18.70;29.80
45868;DHT22;31582;45.490;7.860;2022-09-27T18:14:39;18.70;30.50
45868;DHT22;31582;45.490;7.860;2022-09-27T18:17:05;18.70;29.10
45868;DHT22;31582;45.490;7.860;2022-09-27T18:19:32;18.80;29.00
45868;DHT22;31582;45.490;7.860;2022-09-27T18:21:59;18.80;29.10
45868;DHT22;31582;45.490;7.860;2022-09-27T18:24:26;18.80;28.70
45868;DHT22;31582;45.490;7.860;2022-09-27T18:26:53;18.90;28.50
45868;DHT22;31582;45.490;7.860;2022-09-27T18:29:21;18.90;28.50
45868;DHT22;31582;45.490;7.860;2022-09-27T18:31:48;18.90;28.40
45868;DHT22;31582;45.490;7.860;2022-09-27T18:34:15;18.90;28.60
45868;DHT22;31582;45.490;7.860;2022-09-27T18:36:42;18.90;28.10
45868;DHT22;31582;45.490;7.860;2022-09-27T18:39:14;18.90;28.20
45868;DHT22;31582;45.490;7.860;2022-09-27T18:41:43;18.90;28.30
45868;DHT22;31582;45.490;7.860;2022-09-27T18:44:12;18.90;28.20